Time;durP1;ratioP1;P1;durP2;ratioP2;P2;SDS_P1;SDS_P2;PMS_P1;PMS_P2;Temp;Humidity;BMP_temperature;BMP_pressure;BME280_temperature;BME280_humidity;BME280_pressure;Samples;Min_cycle;Max_cycle;Signal;HPM_P1;HPM_P2
2022/09/13 00:00:48;;;;;;;15.82;8.90;;;;;;;10.81;100.00;100245.47;5014111;28;20026;-81
2022/09/13 00:03:14;;;;;;;13.73;9.38;;;;;;;10.76;100.00;100249.03;4999550;28;20171;-80
2022/09/13 00:05:39;;;;;;;14.85;9.38;;;;;;;10.73;100.00;100245.09;4999740;28;20053;-82
2022/09/13 00:08:06;;;;;;;16.35;10.38;;;;;;;10.74;100.00;100243.81;5015866;28;20098;-82
2022/09/13 00:10:36;;;;;;;13.98;9.07;;;;;;;10.74;100.00;100243.81;5015378;28;20075;-81
2022/09/13 00:13:02;;;;;;;17.02;10.63;;;;;;;10.70;100.00;100233.88;5033531;28;20017;-80
2022/09/13 00:15:27;;;;;;;17.52;9.48;;;;;;;10.68;100.00;100234.34;4999483;28;20367;-80
2022/09/13 00:17:53;;;;;;;15.00;10.52;;;;;;;10.68;100.00;100248.63;5033647;28;20076;-80
2022/09/13 00:20:18;;;;;;;14.90;9.80;;;;;;;10.64;100.00;100248.06;5015901;28;20021;-81
2022/09/13 00:22:44;;;;;;;18.30;11.30;;;;;;;10.62;100.00;100232.72;4999563;28;20033;-80
2022/09/13 00:25:09;;;;;;;21.05;10.88;;;;;;;10.61;100.00;100228.25;5015998;28;20025;-80
2022/09/13 00:27:36;;;;;;;16.75;10.13;;;;;;;10.60;100.00;100235.25;5016266;28;20079;-80
2022/09/13 00:30:04;;;;;;;15.15;9.88;;;;;;;10.58;100.00;100232.88;4999582;28;20121;-78
2022/09/13 00:32:29;;;;;;;14.32;10.50;;;;;;;10.58;100.00;100227.16;5015854;28;20559;-78
2022/09/13 00:34:55;;;;;;;20.25;11.55;;;;;;;10.53;100.00;100211.50;5016068;28;20100;-80
2022/09/13 00:37:20;;;;;;;19.00;12.98;;;;;;;10.53;100.00;100202.19;4999518;28;20026;-79
2022/09/13 00:39:46;;;;;;;16.98;11.30;;;;;;;10.58;100.00;100212.88;4999419;28;20025;-80
2022/09/13 00:42:12;;;;;;;16.58;10.05;;;;;;;10.55;100.00;100208.97;5015781;28;20022;-79
2022/09/13 00:44:54;;;;;;;17.67;12.07;;;;;;;10.59;100.00;100214.47;4999446;28;20108;-79
2022/09/13 00:47:44;;;;;;;20.50;11.43;;;;;;;10.58;100.00;100210.03;4998904;28;20026;-80
2022/09/13 00:50:18;;;;;;;16.58;10.75;;;;;;;10.59;100.00;100208.75;5031262;28;20108;-80
2022/09/13 00:52:47;;;;;;;17.88;12.10;;;;;;;10.56;100.00;100192.59;5031304;28;20029;-80
2022/09/13 00:55:37;;;;;;;17.60;11.07;;;;;;;10.57;100.00;100208.47;5013822;28;20021;-80
2022/09/13 00:58:09;;;;;;;18.17;11.25;;;;;;;10.58;100.00;100198.59;5012806;28;20080;-81
2022/09/13 01:00:35;;;;;;;18.90;10.60;;;;;;;10.58;100.00;100204.31;4997266;28;20029;-82
2022/09/13 01:03:04;;;;;;;15.98;10.65;;;;;;;10.59;100.00;100207.97;4996948;28;20148;-81
2022/09/13 01:05:36;;;;;;;16.58;9.63;;;;;;;10.57;100.00;100202.75;5014983;28;20025;-81
2022/09/13 01:08:03;;;;;;;15.23;10.10;;;;;;;10.56;100.00;100209.75;4999175;28;20100;-80
2022/09/13 01:10:30;;;;;;;16.00;10.77;;;;;;;10.53;100.00;100200.09;4996957;28;20131;-81
2022/09/13 01:13:05;;;;;;;15.85;11.05;;;;;;;10.55;100.00;100205.31;4997462;28;20033;-80
2022/09/13 01:15:30;;;;;;;15.18;10.25;;;;;;;10.49;100.00;100204.44;5014046;28;20033;-80
2022/09/13 01:17:55;;;;;;;14.38;10.00;;;;;;;10.42;100.00;100197.06;5013834;28;20432;-81
2022/09/13 01:20:38;;;;;;;15.50;9.68;;;;;;;10.36;100.00;100201.91;4997337;28;20026;-81
2022/09/13 01:23:35;;;;;;;19.30;10.23;;;;;;;10.40;100.00;100204.53;5017297;28;20371;-82
2022/09/13 01:26:25;;;;;;;18.55;10.35;;;;;;;10.38;100.00;100205.03;5035868;28;20041;-81
2022/09/13 01:28:58;;;;;;;16.48;10.07;;;;;;;10.35;100.00;100203.19;5036889;28;20022;-81
2022/09/13 01:31:48;;;;;;;17.95;10.40;;;;;;;10.32;100.00;100198.47;5019274;28;20040;-80
2022/09/13 01:34:35;;;;;;;15.45;8.55;;;;;;;10.28;100.00;100197.09;5019135;28;20034;-80
2022/09/13 01:37:24;;;;;;;19.25;9.98;;;;;;;10.24;100.00;100191.56;5019395;28;20061;-80
2022/09/13 01:39:55;;;;;;;17.55;9.77;;;;;;;10.21;100.00;100188.91;5019093;28;20038;-79
2022/09/13 01:42:35;;;;;;;20.80;10.75;;;;;;;10.17;100.00;100191.97;5018961;28;20327;-80
2022/09/13 01:45:16;;;;;;;14.80;9.52;;;;;;;10.15;100.00;100182.31;5036950;28;20109;-80
2022/09/13 01:47:58;;;;;;;13.88;8.07;;;;;;;10.11;100.00;100186.16;5018727;28;20056;-80
2022/09/13 01:50:35;;;;;;;10.98;8.18;;;;;;;10.05;100.00;100182.41;5002715;28;20080;-80
2022/09/13 01:53:06;;;;;;;15.63;9.05;;;;;;;10.03;100.00;100178.50;5018886;28;20484;-80
2022/09/13 01:55:31;;;;;;;13.50;9.00;;;;;;;9.99;100.00;100181.53;5018958;28;20116;-80
2022/09/13 01:58:28;;;;;;;16.52;10.25;;;;;;;9.99;100.00;100169.31;5036508;28;20037;-81
2022/09/13 02:01:06;;;;;;;13.45;9.07;;;;;;;9.96;100.00;100165.41;5018775;28;20029;-79
2022/09/13 02:03:43;;;;;;;18.77;10.50;;;;;;;9.96;100.00;100159.69;5018951;28;20387;-80
2022/09/13 02:06:16;;;;;;;13.65;9.02;;;;;;;9.93;100.00;100145.63;5001984;28;20024;-80
2022/09/13 02:09:09;;;;;;;16.15;9.75;;;;;;;9.90;100.00;100152.28;5001923;28;20013;-79
2022/09/13 02:11:35;;;;;;;13.23;9.43;;;;;;;9.90;100.00;100146.59;5001781;28;20071;-78
2022/09/13 02:14:08;;;;;;;15.80;8.52;;;;;;;9.89;100.00;100142.94;5001837;28;20017;-78
2022/09/13 02:16:40;;;;;;;11.77;8.43;;;;;;;9.87;100.00;100136.97;5001859;28;20040;-80
2022/09/13 02:19:09;;;;;;;12.30;8.52;;;;;;;9.86;100.00;100138.22;5001834;28;20018;-81
2022/09/13 02:21:42;;;;;;;14.02;9.02;;;;;;;9.84;100.00;100137.91;5018661;28;20112;-80
2022/09/13 02:24:13;;;;;;;15.15;10.60;;;;;;;9.82;100.00;100128.28;5019176;28;20018;-80
2022/09/13 02:26:39;;;;;;;15.73;9.52;;;;;;;9.71;100.00;100114.59;5018304;28;20103;-81
2022/09/13 02:29:07;;;;;;;13.63;9.23;;;;;;;9.80;100.00;100125.13;5018230;28;20058;-80
2022/09/13 02:31:36;;;;;;;16.48;10.68;;;;;;;9.76;100.00;100124.53;5018472;28;20459;-80
2022/09/13 02:34:06;;;;;;;15.27;10.48;;;;;;;9.77;100.00;100129.78;5018403;28;20482;-80
2022/09/13 02:36:35;;;;;;;15.73;10.90;;;;;;;9.75;100.00;100122.97;5018910;28;20048;-79
2022/09/13 02:39:07;;;;;;;15.13;10.15;;;;;;;9.76;100.00;100128.19;5002081;28;20017;-79
2022/09/13 02:41:34;;;;;;;15.82;10.20;;;;;;;9.77;100.00;100115.50;5037467;28;20060;-80
2022/09/13 02:44:25;;;;;;;11.77;9.00;;;;;;;9.75;100.00;100120.91;5039183;28;20025;-81
2022/09/13 02:47:03;;;;;;;13.38;9.60;;;;;;;9.76;100.00;100113.13;5039821;28;20102;-80
2022/09/13 02:49:50;;;;;;;16.95;9.63;;;;;;;9.72;100.00;100112.50;5039286;28;20026;-79
2022/09/13 02:52:37;;;;;;;14.38;9.02;;;;;;;9.68;100.00;100115.56;5033598;28;20025;-79
2022/09/13 02:55:06;;;;;;;20.33;9.48;;;;;;;9.64;100.00;100118.59;5021124;28;20025;-79
2022/09/13 02:57:37;;;;;;;13.88;9.50;;;;;;;9.61;100.00;100111.03;5037812;28;20497;-79
2022/09/13 03:00:03;;;;;;;13.93;9.70;;;;;;;9.61;100.00;100101.69;5021290;28;20017;-79
2022/09/13 03:02:31;;;;;;;17.10;10.10;;;;;;;9.56;100.00;100097.47;5022786;28;20072;-79
2022/09/13 03:04:59;;;;;;;13.82;8.80;;;;;;;9.56;100.00;100099.53;5041136;28;20029;-82
2022/09/13 03:07:24;;;;;;;18.33;9.15;;;;;;;9.51;100.00;100098.16;5041127;28;20044;-79
2022/09/13 03:09:55;;;;;;;15.40;8.32;;;;;;;9.46;100.00;100089.47;5040032;28;20048;-80
2022/09/13 03:12:52;;;;;;;18.48;9.13;;;;;;;9.43;100.00;100085.56;5008174;28;20021;-79
2022/09/13 03:15:58;;;;;;;14.43;9.45;;;;;;;9.40;100.00;100085.72;5039219;28;20032;-80
2022/09/13 03:18:34;;;;;;;16.95;10.05;;;;;;;9.39;100.00;100078.47;5035508;28;20025;-81
2022/09/13 03:21:14;;;;;;;14.88;9.27;;;;;;;9.38;100.00;100083.38;5017986;28;20029;-79
2022/09/13 03:23:45;;;;;;;17.00;9.48;;;;;;;9.39;100.00;100075.63;5016970;28;20029;-80
2022/09/13 03:26:34;;;;;;;12.23;9.55;;;;;;;9.43;100.00;100076.22;5000780;28;20024;-79
2022/09/13 03:29:30;;;;;;;13.35;9.45;;;;;;;9.42;100.00;100066.06;5017169;28;20493;-79
2022/09/13 03:32:04;;;;;;;16.42;10.32;;;;;;;9.41;100.00;100062.44;5016283;28;20044;-81
2022/09/13 03:34:32;;;;;;;14.52;9.43;;;;;;;9.42;100.00;100066.06;5034431;28;20025;-80
2022/09/13 03:37:21;;;;;;;18.45;10.38;;;;;;;9.40;100.00;100055.16;5034542;28;20043;-81
2022/09/13 03:39:59;;;;;;;18.80;9.38;;;;;;;9.37;100.00;100056.16;5020965;28;20037;-81
2022/09/13 03:42:30;;;;;;;15.57;9.65;;;;;;;9.41;100.00;100053.09;5016343;28;20434;-80
2022/09/13 03:44:57;;;;;;;13.45;9.60;;;;;;;9.41;100.00;100041.69;4999009;28;20028;-80
2022/09/13 03:47:24;;;;;;;13.52;9.60;;;;;;;9.39;100.00;100049.97;5000006;28;20073;-79
2022/09/13 03:49:51;;;;;;;14.68;9.52;;;;;;;9.37;100.00;100047.59;5000063;28;20049;-80
2022/09/13 03:52:17;;;;;;;13.93;10.30;;;;;;;9.37;100.00;100035.41;5000101;28;20029;-80
2022/09/13 03:54:42;;;;;;;13.85;9.77;;;;;;;9.38;100.00;100039.81;4999807;28;20024;-79
2022/09/13 03:57:08;;;;;;;15.88;10.38;;;;;;;9.38;100.00;100045.53;5016059;28;20022;-79
2022/09/13 03:59:35;;;;;;;15.57;9.63;;;;;;;9.38;100.00;100039.81;5016258;28;20076;-80
2022/09/13 04:02:01;;;;;;;13.85;9.88;;;;;;;9.38;100.00;100054.88;4995971;28;20133;-80
2022/09/13 04:04:27;;;;;;;16.45;9.55;;;;;;;9.39;100.00;100042.19;5012774;28;20459;-81
2022/09/13 04:06:55;;;;;;;15.60;9.85;;;;;;;9.41;100.00;100042.47;5012915;28;20030;-81
2022/09/13 04:09:21;;;;;;;13.77;10.73;;;;;;;9.45;100.00;100039.41;5014176;28;20471;-81
2022/09/13 04:11:47;;;;;;;16.55;10.05;;;;;;;9.42;100.00;100034.72;4996384;28;20028;-80
2022/09/13 04:14:12;;;;;;;15.70;10.32;;;;;;;9.40;100.00;100040.09;5012770;28;20022;-80
2022/09/13 04:16:37;;;;;;;17.27;10.05;;;;;;;9.42;100.00;100043.25;5012815;28;20025;-80
2022/09/13 04:19:04;;;;;;;14.20;10.80;;;;;;;9.41;100.00;100033.13;5013416;28;20026;-79
2022/09/13 04:21:30;;;;;;;14.27;9.75;;;;;;;9.48;100.00;100041.31;5013538;28;20030;-80
2022/09/13 04:23:56;;;;;;;15.13;9.27;;;;;;;9.51;100.00;100046.00;5013043;28;20025;-80
2022/09/13 04:26:23;;;;;;;15.63;9.60;;;;;;;9.50;100.00;100038.72;5012807;28;20026;-80
2022/09/13 04:28:52;;;;;;;17.55;10.75;;;;;;;9.52;100.00;100045.53;5012877;28;20029;-78
2022/09/13 04:31:19;;;;;;;14.57;10.10;;;;;;;9.52;100.00;100039.03;4980206;28;20030;-79
2022/09/13 04:33:44;;;;;;;14.65;9.55;;;;;;;9.55;100.00;100040.88;5014136;28;20110;-80
2022/09/13 04:36:11;;;;;;;12.40;9.10;;;;;;;9.61;100.00;100051.13;5012760;28;20053;-79
2022/09/13 04:38:36;;;;;;;13.82;9.00;;;;;;;9.64;100.00;100043.66;5012491;28;20034;-77
2022/09/13 04:41:02;;;;;;;13.38;9.27;;;;;;;9.63;100.00;100044.94;5013493;28;20024;-75
2022/09/13 04:43:28;;;;;;;13.07;8.63;;;;;;;9.55;100.00;100033.13;5012476;28;20062;-77
2022/09/13 04:45:59;;;;;;;16.30;9.20;;;;;;;9.65;100.00;100039.50;5013502;28;20061;-77
2022/09/13 04:48:24;;;;;;;20.30;9.85;;;;;;;9.69;100.00;100043.72;4996387;28;20534;-76
2022/09/13 04:50:51;;;;;;;12.85;8.80;;;;;;;9.75;100.00;100038.16;5011568;28;20108;-76
2022/09/13 04:53:17;;;;;;;12.90;8.32;;;;;;;9.78;100.00;100037.19;4995633;28;20025;-76
2022/09/13 04:55:43;;;;;;;13.05;8.32;;;;;;;9.88;100.00;100040.72;5012715;28;20475;-76
2022/09/13 04:58:11;;;;;;;17.25;8.70;;;;;;;9.95;100.00;100035.38;4999425;28;20062;-76
2022/09/13 05:00:37;;;;;;;12.10;8.18;;;;;;;10.00;100.00;100037.53;4999811;28;20058;-75
2022/09/13 05:03:03;;;;;;;12.98;8.68;;;;;;;10.04;100.00;100040.16;5016081;28;20034;-78
2022/09/13 05:05:29;;;;;;;13.90;8.40;;;;;;;10.14;100.00;100046.56;5015968;28;20116;-78
2022/09/13 05:07:55;;;;;;;12.82;7.72;;;;;;;10.21;100.00;100051.84;5015770;28;20026;-80
2022/09/13 05:10:21;;;;;;;12.52;8.50;;;;;;;10.25;100.00;100053.22;5017242;28;20103;-80
2022/09/13 05:12:47;;;;;;;17.23;7.68;;;;;;;10.37;100.00;100048.44;5015736;28;20487;-82
2022/09/13 05:15:14;;;;;;;13.90;7.53;;;;;;;10.47;100.00;100047.81;5029609;28;20516;-81
2022/09/13 05:17:41;;;;;;;12.98;7.53;;;;;;;10.59;100.00;100060.19;5037815;28;20018;-82
2022/09/13 05:20:09;;;;;;;11.25;7.45;;;;;;;10.64;100.00;100053.75;5038391;28;20017;-82
2022/09/13 05:22:34;;;;;;;8.68;6.80;;;;;;;10.70;100.00;100043.19;5036408;28;20064;-82
2022/09/13 05:25:00;;;;;;;10.45;6.85;;;;;;;10.79;100.00;100039.38;5015588;28;20049;-81
2022/09/13 05:27:25;;;;;;;13.88;7.35;;;;;;;10.91;100.00;100041.09;5013104;28;20022;-82
2022/09/13 05:29:50;;;;;;;10.63;6.75;;;;;;;11.05;100.00;100042.28;5014397;28;20470;-81
2022/09/13 05:32:16;;;;;;;12.15;7.45;;;;;;;11.11;100.00;100040.28;5014702;28;20026;-81
2022/09/13 05:34:41;;;;;;;13.00;7.47;;;;;;;11.25;100.00;100040.22;4997646;28;20033;-84
2022/09/13 05:37:06;;;;;;;12.25;7.95;;;;;;;11.37;100.00;100035.38;5015018;28;20034;-82
2022/09/13 05:39:32;;;;;;;11.18;6.82;;;;;;;11.47;100.00;100036.78;5014142;28;20109;-82
2022/09/13 05:41:57;;;;;;;13.45;7.28;;;;;;;11.56;100.00;100042.34;4997857;28;20092;-83
2022/09/13 05:44:23;;;;;;;15.25;8.02;;;;;;;11.62;100.00;100043.16;5016635;28;20018;-81
2022/09/13 05:46:48;;;;;;;15.23;7.45;;;;;;;11.67;100.00;100041.63;5015170;28;20018;-82
2022/09/13 05:49:13;;;;;;;11.32;6.72;;;;;;;11.80;100.00;100036.31;5014928;28;20437;-82
2022/09/13 05:51:39;;;;;;;18.83;7.50;;;;;;;11.89;100.00;100032.47;5014794;28;20492;-82
2022/09/13 05:54:04;;;;;;;11.93;6.85;;;;;;;12.09;100.00;100038.88;4998393;28;20029;-82
2022/09/13 05:56:31;;;;;;;10.98;6.72;;;;;;;12.29;100.00;100029.34;4998716;28;20072;-82
2022/09/13 05:58:56;;;;;;;11.00;6.32;;;;;;;12.52;100.00;100025.34;5014515;28;20025;-81
2022/09/13 06:01:24;;;;;;;12.63;6.95;;;;;;;12.69;100.00;100025.44;5014630;28;20049;-82
2022/09/13 06:03:51;;;;;;;11.48;5.97;;;;;;;12.90;100.00;100014.56;4998271;28;20030;-81
2022/09/13 06:06:17;;;;;;;16.98;7.18;;;;;;;13.11;100.00;100016.69;5014716;28;20483;-81
2022/09/13 06:08:43;;;;;;;7.63;5.57;;;;;;;13.83;100.00;100016.03;5013620;28;20137;-82
2022/09/13 06:11:10;;;;;;;8.10;6.35;;;;;;;14.76;100.00;100004.09;5014699;28;20060;-82
2022/09/13 06:13:36;;;;;;;9.07;5.55;;;;;;;15.39;100.00;100000.31;5014601;28;20037;-81
2022/09/13 06:16:03;;;;;;;9.32;5.22;;;;;;;15.72;100.00;99997.22;5014464;28;20022;-82
2022/09/13 06:18:29;;;;;;;11.10;5.75;;;;;;;17.01;100.00;99982.97;4998114;28;20022;-83
2022/09/13 06:21:18;;;;;;;7.53;4.50;;;;;;;18.46;100.00;99987.16;5014234;28;20545;-82
2022/09/13 06:23:48;;;;;;;18.80;5.38;;;;;;;20.30;100.00;99977.84;5013843;28;20038;-82
2022/09/13 06:26:15;;;;;;;16.08;5.32;;;;;;;21.80;89.79;99981.25;5014466;28;20116;-83
2022/09/13 06:28:41;;;;;;;11.68;4.68;;;;;;;23.36;81.38;99975.53;5015545;28;20080;-83
2022/09/13 06:31:09;;;;;;;6.03;4.53;;;;;;;24.72;67.99;99981.72;5014208;28;20049;-82
2022/09/13 06:33:36;;;;;;;12.85;4.45;;;;;;;25.95;57.83;99985.41;4997861;28;20045;-83
2022/09/13 06:36:03;;;;;;;13.23;5.10;;;;;;;26.95;51.32;99994.81;4997706;28;20038;-83
2022/09/13 06:38:28;;;;;;;5.18;3.50;;;;;;;27.82;48.29;99993.31;5016040;28;20026;-83
2022/09/13 06:41:11;;;;;;;6.07;3.85;;;;;;;28.05;44.58;99992.03;5024581;28;20049;-82
2022/09/13 06:43:37;;;;;;;15.40;5.00;;;;;;;27.27;43.93;99988.44;5017841;28;20359;-84
2022/09/13 06:46:05;;;;;;;10.57;4.63;;;;;;;26.71;45.63;99979.00;5014445;28;20043;-85
2022/09/13 06:48:33;;;;;;;21.15;5.20;;;;;;;27.02;45.95;99974.09;5014447;28;20067;-82
2022/09/13 06:51:03;;;;;;;9.80;3.75;;;;;;;27.62;43.62;99988.88;5015002;28;20030;-82
2022/09/13 06:53:32;;;;;;;7.03;3.60;;;;;;;27.87;40.29;99988.50;5014218;28;20034;-83
2022/09/13 06:56:08;;;;;;;10.38;3.67;;;;;;;28.45;40.06;99991.97;5014792;28;20048;-83
2022/09/13 06:58:36;;;;;;;4.03;3.33;;;;;;;28.82;37.98;100001.22;4997597;28;20033;-80
2022/09/13 07:01:16;;;;;;;6.88;3.53;;;;;;;29.60;37.79;99991.09;4984568;28;20138;-82
2022/09/13 07:03:45;;;;;;;14.02;3.60;;;;;;;30.28;34.99;99988.13;5017289;28;20025;-80
2022/09/13 07:06:17;;;;;;;8.80;3.10;;;;;;;30.23;35.12;100001.09;5017491;28;20030;-81
2022/09/13 07:08:51;;;;;;;6.60;3.08;;;;;;;30.78;35.60;99999.41;5017369;28;20370;-80
2022/09/13 07:11:28;;;;;;;6.35;3.25;;;;;;;31.40;34.42;100002.41;5017128;28;20108;-80
2022/09/13 07:14:05;;;;;;;6.97;3.35;;;;;;;31.51;33.62;99994.91;5034995;28;20029;-79
2022/09/13 07:16:33;;;;;;;7.05;3.63;;;;;;;31.09;34.78;99992.38;5003777;28;20021;-79
2022/09/13 07:19:04;;;;;;;5.82;3.10;;;;;;;30.06;35.99;99993.38;4984032;28;20029;-81
2022/09/13 07:21:51;;;;;;;6.30;3.28;;;;;;;28.41;38.19;99989.50;5019585;28;20032;-81
2022/09/13 07:24:32;;;;;;;6.50;3.55;;;;;;;26.94;40.18;99985.22;4999628;28;20068;-80
2022/09/13 07:26:57;;;;;;;7.93;2.97;;;;;;;26.45;44.22;99974.81;5035560;28;20037;-81
2022/09/13 07:29:24;;;;;;;3.97;3.08;;;;;;;26.10;46.15;99962.50;5018159;28;20382;-81
2022/09/13 07:31:53;;;;;;;5.60;3.70;;;;;;;25.59;45.32;99956.84;5034882;28;20075;-80
2022/09/13 07:34:20;;;;;;;7.38;3.58;;;;;;;25.38;47.61;99954.41;5034623;28;20136;-78
2022/09/13 07:36:47;;;;;;;16.30;3.92;;;;;;;25.55;48.45;99962.38;5000766;28;20045;-84
2022/09/13 07:39:14;;;;;;;7.80;3.75;;;;;;;25.97;47.81;99962.91;4999819;28;20057;-80
2022/09/13 07:41:47;;;;;;;12.13;3.95;;;;;;;26.72;44.86;99962.97;5033495;28;20029;-85
2022/09/13 07:44:12;;;;;;;12.88;3.80;;;;;;;27.60;43.79;99959.38;4983033;28;20034;-85
2022/09/13 07:46:46;;;;;;;8.95;2.97;;;;;;;27.70;41.88;99968.91;5000084;28;20079;-84
2022/09/13 07:49:20;;;;;;;7.65;3.45;;;;;;;27.37;42.24;99976.72;5001425;28;20088;-84
2022/09/13 07:51:49;;;;;;;6.13;2.80;;;;;;;27.15;42.90;99969.94;5016013;28;20029;-83
2022/09/13 07:54:16;;;;;;;4.93;3.30;;;;;;;26.19;43.93;99975.66;5016887;28;20067;-84
2022/09/13 07:56:44;;;;;;;3.33;2.95;;;;;;;26.21;46.58;99967.03;4999972;28;20120;-82
2022/09/13 07:59:14;;;;;;;3.88;3.40;;;;;;;26.59;47.60;99967.09;5000507;28;20038;-84
2022/09/13 08:01:44;;;;;;;8.30;3.00;;;;;;;26.82;46.78;99962.97;4999626;28;20491;-83
2022/09/13 08:04:12;;;;;;;3.80;2.80;;;;;;;26.85;45.77;99961.75;4999688;28;20033;-82
2022/09/13 08:06:39;;;;;;;3.28;2.95;;;;;;;26.65;47.12;99958.00;4984018;28;20052;-82
2022/09/13 08:09:06;;;;;;;5.28;3.05;;;;;;;26.69;47.20;99956.16;5015823;28;20040;-82
2022/09/13 08:11:37;;;;;;;3.85;3.22;;;;;;;27.07;46.76;99954.66;5015901;28;20029;-82
2022/09/13 08:14:13;;;;;;;3.13;2.83;;;;;;;27.49;44.16;99952.00;4999389;28;20120;-81
2022/09/13 08:16:38;;;;;;;2.80;2.47;;;;;;;28.32;44.18;99949.19;5015784;28;20447;-83
2022/09/13 08:19:06;;;;;;;2.70;2.40;;;;;;;28.92;40.88;99954.81;4998243;28;20033;-83
2022/09/13 08:21:37;;;;;;;5.70;2.63;;;;;;;29.39;37.95;99967.56;4980200;28;20037;-80
2022/09/13 08:24:07;;;;;;;8.77;3.10;;;;;;;29.67;37.12;99948.88;4996493;28;20040;-86
2022/09/13 08:26:35;;;;;;;8.25;4.03;;;;;;;29.91;37.13;99951.84;4995691;28;20098;-83
2022/09/13 08:29:04;;;;;;;5.38;3.05;;;;;;;30.37;37.82;99945.94;5012361;28;20117;-85
2022/09/13 08:31:31;;;;;;;11.00;3.60;;;;;;;30.75;36.86;99952.72;5017767;28;20029;-83
2022/09/13 08:33:59;;;;;;;4.07;2.58;;;;;;;31.32;35.71;99954.69;5019781;28;20053;-86
2022/09/13 08:36:26;;;;;;;5.53;2.70;;;;;;;31.12;34.62;99946.78;5037638;28;20120;-82
2022/09/13 08:38:56;;;;;;;3.50;2.70;;;;;;;31.32;35.16;99948.78;5003074;28;20030;-82
2022/09/13 08:41:47;;;;;;;4.53;3.80;;;;;;;31.49;35.27;99949.72;4987911;28;20033;-84
2022/09/13 08:44:36;;;;;;;5.18;4.05;;;;;;;30.46;36.01;99947.22;5037327;28;20037;-86
2022/09/13 08:47:18;;;;;;;5.65;3.42;;;;;;;30.89;36.22;99947.66;5028946;28;20033;-86
2022/09/13 08:49:48;;;;;;;5.40;4.10;;;;;;;30.89;35.01;99944.72;5037764;28;20105;-82
2022/09/13 08:52:33;;;;;;;6.93;3.65;;;;;;;30.60;34.75;99939.25;5003337;28;20044;-79
2022/09/13 08:55:07;;;;;;;6.63;4.50;;;;;;;29.03;38.22;99942.38;5036518;28;20040;-78
2022/09/13 08:58:16;;;;;;;4.90;3.80;;;;;;;29.51;36.71;99944.84;5019258;28;20074;-80
2022/09/13 09:00:49;;;;;;;5.00;3.53;;;;;;;29.18;36.91;99938.22;5002406;28;20026;-80
2022/09/13 09:03:58;;;;;;;4.78;3.30;;;;;;;28.68;39.21;99936.28;5002511;28;20042;-80
2022/09/13 09:06:25;;;;;;;3.97;3.38;;;;;;;28.19;39.49;99932.09;4940453;29;20098;-80
2022/09/13 09:09:00;;;;;;;6.63;3.30;;;;;;;28.15;41.47;99920.03;4993641;28;20167;-80
2022/09/13 09:11:49;;;;;;;4.80;3.05;;;;;;;28.53;41.50;99919.06;5002311;28;20174;-80
2022/09/13 09:14:20;;;;;;;95.63;16.58;;;;;;;28.44;40.66;99914.75;5004881;28;20037;-80
2022/09/13 09:16:47;;;;;;;;;;;;;;;28.54;42.08;99913.97;5019338;28;20029;-80
2022/09/13 09:19:34;;;;;;;212.43;32.67;;;;;;;28.84;38.88;99907.97;5036511;28;19916;-80
2022/09/13 09:22:03;;;;;;;7.38;3.33;;;;;;;28.73;39.12;99902.81;5018806;28;20514;-80
2022/09/13 09:24:40;;;;;;;7.47;4.38;;;;;;;28.77;38.10;99893.47;5002130;28;20394;-79
2022/09/13 09:27:15;;;;;;;18.58;4.93;;;;;;;28.86;39.17;99890.44;5018609;28;20553;-79
2022/09/13 09:29:45;;;;;;;36.33;7.32;;;;;;;28.95;38.97;99891.75;5002486;28;20400;-80
2022/09/13 09:32:21;;;;;;;73.28;12.88;;;;;;;29.12;37.96;99881.88;5002680;28;20110;-80
2022/09/13 09:35:09;;;;;;;121.53;20.33;;;;;;;28.97;37.58;99885.25;5036094;28;20095;-80
2022/09/13 09:37:36;;;;;;;72.45;13.50;;;;;;;28.61;38.85;99889.44;5036133;28;20029;-79
2022/09/13 09:40:09;;;;;;;188.70;22.83;;;;;;;28.31;38.57;99888.84;5001905;28;20029;-78
2022/09/13 09:42:43;;;;;;;24.92;5.38;;;;;;;27.54;38.99;99891.41;5019134;28;20041;-78
2022/09/13 09:45:28;;;;;;;3.30;2.90;;;;;;;26.98;40.30;99871.13;5036073;28;20086;-79
2022/09/13 09:47:54;;;;;;;14.27;4.45;;;;;;;26.27;41.47;99873.75;5001709;28;20035;-77
2022/09/13 09:50:25;;;;;;;21.10;5.82;;;;;;;25.98;42.72;99873.66;5018220;28;20079;-77
2022/09/13 09:53:13;;;;;;;11.55;3.22;;;;;;;25.69;44.88;99856.00;5002045;28;20037;-78
2022/09/13 09:55:53;;;;;;;87.88;17.60;;;;;;;25.44;45.81;99853.25;5035898;28;20028;-77
2022/09/13 09:58:39;;;;;;;213.23;34.80;;;;;;;25.27;47.65;99844.56;5035680;28;20382;-78
2022/09/13 10:01:15;;;;;;;116.07;19.08;;;;;;;25.15;47.36;99840.63;5017996;28;20090;-78
2022/09/13 10:03:42;;;;;;;26.75;6.18;;;;;;;25.07;47.58;99845.84;5017660;28;20034;-78
2022/09/13 10:06:13;;;;;;;186.82;27.45;;;;;;;24.99;46.61;99840.09;5017837;28;20045;-78
2022/09/13 10:08:40;;;;;;;;;;;;;;;24.82;48.74;99833.50;5001864;28;20025;-77
2022/09/13 10:11:08;;;;;;;198.55;30.45;;;;;;;24.51;47.73;99836.81;5032176;28;19917;-77
2022/09/13 10:13:36;;;;;;;43.03;8.38;;;;;;;24.12;50.65;99834.88;5001345;28;20029;-77
2022/09/13 10:16:03;;;;;;;724.03;130.55;;;;;;;23.77;49.51;99828.22;5018339;28;20109;-77
2022/09/13 10:18:32;;;;;;;76.03;12.30;;;;;;;23.46;52.37;99821.84;5017512;28;20037;-77
2022/09/13 10:21:06;;;;;;;646.97;108.47;;;;;;;23.15;53.37;99806.75;5017564;28;20041;-78
2022/09/13 10:23:34;;;;;;;25.48;6.60;;;;;;;22.73;57.10;99802.91;5017952;28;20048;-77
2022/09/13 10:26:22;;;;;;;12.93;3.92;;;;;;;22.39;58.03;99801.31;4985016;28;20037;-77
2022/09/13 10:29:09;;;;;;;14.10;4.97;;;;;;;22.00;61.12;99791.13;5035004;28;20087;-78
2022/09/13 10:32:02;;;;;;;67.53;11.70;;;;;;;21.77;64.38;99792.56;5035604;28;20103;-78
2022/09/13 10:34:44;;;;;;;11.77;3.92;;;;;;;21.55;66.57;99789.09;5017882;28;20060;-78
2022/09/13 10:37:18;;;;;;;131.13;19.75;;;;;;;21.53;66.20;99791.03;5000902;28;20033;-78
2022/09/13 10:39:57;;;;;;;216.63;33.38;;;;;;;21.61;67.55;99788.88;5035032;28;20037;-79
2022/09/13 10:42:25;;;;;;;21.60;5.38;;;;;;;21.73;67.12;99789.28;5017321;28;20355;-78
2022/09/13 10:45:01;;;;;;;50.38;10.23;;;;;;;21.90;67.44;99783.59;5017382;28;20037;-78
2022/09/13 10:47:33;;;;;;;34.05;7.18;;;;;;;22.02;70.24;99779.69;5000645;28;20033;-79
2022/09/13 10:50:14;;;;;;;8.45;3.30;;;;;;;22.16;70.51;99780.22;5001001;28;20399;-77
2022/09/13 10:52:51;;;;;;;173.73;22.75;;;;;;;22.52;70.33;99777.75;5034743;28;20072;-79
2022/09/13 10:55:39;;;;;;;123.22;19.95;;;;;;;22.97;68.50;99770.13;5017884;28;20079;-79
2022/09/13 10:58:04;;;;;;;7.03;3.42;;;;;;;22.83;67.06;99771.75;5034560;28;20104;-78
2022/09/13 11:00:42;;;;;;;59.97;10.85;;;;;;;23.01;61.28;99779.28;5034277;28;20120;-78
2022/09/13 11:03:39;;;;;;;294.65;41.60;;;;;;;23.26;61.34;99779.28;4995125;28;20373;-80
2022/09/13 11:06:08;;;;;;;20.88;4.75;;;;;;;23.49;61.11;99768.19;4992891;28;20042;-81
2022/09/13 11:09:01;;;;;;;6.88;2.70;;;;;;;23.20;61.63;99770.00;4992737;28;20129;-79
2022/09/13 11:11:26;;;;;;;6.18;2.80;;;;;;;23.30;61.52;99779.63;4993947;28;20057;-80
2022/09/13 11:14:06;;;;;;;3.90;2.97;;;;;;;23.34;64.00;99762.47;4992785;28;20487;-78
2022/09/13 11:16:52;;;;;;;3.90;2.85;;;;;;;23.19;66.30;99777.97;4990517;28;20058;-78
2022/09/13 11:19:31;;;;;;;6.40;3.50;;;;;;;23.59;64.63;99763.25;4991090;28;20022;-77
2022/09/13 11:22:15;;;;;;;8.65;2.88;;;;;;;23.64;64.47;99761.44;5010891;28;20045;-78
2022/09/13 11:24:47;;;;;;;17.27;3.15;;;;;;;23.85;59.54;99763.97;4992634;28;20026;-78
2022/09/13 11:27:39;;;;;;;6.25;3.03;;;;;;;23.85;62.79;99761.06;4994905;28;20105;-80
2022/09/13 11:30:11;;;;;;;2.88;2.45;;;;;;;23.94;59.86;99758.22;4974957;28;20022;-77
2022/09/13 11:32:43;;;;;;;5.55;2.60;;;;;;;24.11;57.18;99763.25;5007146;28;20026;-80
2022/09/13 11:35:48;;;;;;;3.78;2.30;;;;;;;24.21;57.93;99752.44;4992002;28;20038;-79
2022/09/13 11:38:35;;;;;;;4.82;2.72;;;;;;;24.45;57.79;99742.78;4993414;28;20499;-79
2022/09/13 11:41:51;;;;;;;3.50;2.72;;;;;;;24.69;57.26;99749.13;4991470;28;20357;-79
2022/09/13 11:44:54;;;;;;;6.80;2.60;;;;;;;24.82;54.48;99742.88;4987682;28;20061;-79